createdAt,value
2022-10-18T00:00:59.008Z,42.84
2022-10-18T00:06:19.665Z,42.93
2022-10-18T00:08:54.081Z,43.11
2022-10-18T00:11:26.196Z,43.01
2022-10-18T00:13:58.668Z,43.10
2022-10-18T00:16:30.784Z,43.44
2022-10-18T00:19:03.431Z,43.41
2022-10-18T00:21:35.528Z,43.65
2022-10-18T00:24:08.375Z,43.59
2022-10-18T00:26:40.590Z,43.63
2022-10-18T00:29:16.982Z,43.75
2022-10-18T00:31:49.093Z,43.92
2022-10-18T00:34:21.266Z,43.93
2022-10-18T00:36:53.545Z,43.99
2022-10-18T00:39:25.755Z,44.17
2022-10-18T00:41:57.909Z,44.08
2022-10-18T00:45:04.793Z,44.00
2022-10-18T00:47:37.607Z,44.25
2022-10-18T00:50:11.114Z,44.26
2022-10-18T00:52:46.163Z,44.58
2022-10-18T00:55:18.391Z,44.63
2022-10-18T00:57:50.966Z,44.59
2022-10-18T01:00:21.732Z,44.76
2022-10-18T01:02:53.911Z,44.85
2022-10-18T01:05:26.109Z,44.78
2022-10-18T01:08:16.270Z,45.06
2022-10-18T01:10:55.902Z,45.00
2022-10-18T01:13:37.142Z,45.08
2022-10-18T01:16:13.561Z,45.09
2022-10-18T01:18:48.541Z,45.16
2022-10-18T01:21:31.930Z,45.31
2022-10-18T01:24:29.797Z,45.13
2022-10-18T01:27:29.233Z,45.19
2022-10-18T01:30:32.239Z,45.28
2022-10-18T01:33:08.785Z,45.42
2022-10-18T01:35:44.433Z,45.43
2022-10-18T01:38:18.233Z,45.36
2022-10-18T01:40:51.395Z,45.61
2022-10-18T01:43:24.683Z,45.43
2022-10-18T01:45:58.082Z,45.66
2022-10-18T01:48:30.516Z,45.76
2022-10-18T01:51:02.723Z,45.72
2022-10-18T01:53:36.239Z,45.62
2022-10-18T01:56:26.833Z,45.78
2022-10-18T01:59:09.199Z,45.84
2022-10-18T02:01:49.662Z,45.87
2022-10-18T02:04:30.027Z,46.06
2022-10-18T02:07:08.037Z,46.06
2022-10-18T02:09:46.380Z,45.86
2022-10-18T02:12:19.321Z,46.16
2022-10-18T02:14:52.693Z,46.24
2022-10-18T02:17:26.460Z,46.18
2022-10-18T02:19:59.931Z,46.23
2022-10-18T02:22:34.306Z,46.23
2022-10-18T02:25:10.446Z,46.17
2022-10-18T02:27:42.952Z,46.30
2022-10-18T02:30:15.530Z,46.24
2022-10-18T02:32:51.145Z,46.46
2022-10-18T02:35:26.320Z,46.43
2022-10-18T02:38:00.093Z,46.55
2022-10-18T02:40:32.466Z,46.35
2022-10-18T02:43:05.292Z,46.58
2022-10-18T02:45:38.126Z,46.71
2022-10-18T02:48:10.476Z,46.65
2022-10-18T02:50:42.686Z,46.76
2022-10-18T02:53:14.927Z,46.78
2022-10-18T02:55:47.225Z,46.70
2022-10-18T02:58:19.288Z,46.79
2022-10-18T03:00:53.663Z,46.92
2022-10-18T03:03:25.828Z,46.91
2022-10-18T03:05:57.959Z,46.92
2022-10-18T03:08:30.130Z,47.15
2022-10-18T03:11:02.301Z,46.96
2022-10-18T03:13:35.106Z,47.20
2022-10-18T03:16:09.310Z,47.25
2022-10-18T03:18:41.469Z,47.18
2022-10-18T03:21:13.695Z,47.23
2022-10-18T03:23:45.830Z,47.30
2022-10-18T03:26:17.984Z,47.41
2022-10-18T03:28:50.214Z,47.36
2022-10-18T03:31:22.457Z,47.40
2022-10-18T03:33:54.607Z,47.39
2022-10-18T03:36:26.721Z,47.30
2022-10-18T03:38:58.782Z,47.53
2022-10-18T03:41:31.230Z,47.57
2022-10-18T03:44:03.476Z,47.69
2022-10-18T03:46:35.531Z,47.65
2022-10-18T03:49:07.612Z,47.76
2022-10-18T03:51:39.718Z,48.00
2022-10-18T03:54:11.902Z,47.68
2022-10-18T03:56:44.034Z,47.87
2022-10-18T03:59:17.171Z,47.91
2022-10-18T04:01:49.366Z,47.85
2022-10-18T04:04:21.581Z,47.80
2022-10-18T04:06:56.272Z,47.76
2022-10-18T04:09:28.448Z,47.89
2022-10-18T04:12:00.634Z,47.93
2022-10-18T04:14:32.905Z,48.20
2022-10-18T04:17:05.133Z,47.99
2022-10-18T04:19:37.396Z,48.06
2022-10-18T04:22:09.513Z,48.15
2022-10-18T04:24:41.901Z,48.35
2022-10-18T04:27:14.042Z,48.55
2022-10-18T04:29:46.278Z,48.33
2022-10-18T04:32:18.526Z,48.53
2022-10-18T04:34:50.733Z,48.59
2022-10-18T04:37:22.961Z,48.79
2022-10-18T04:39:55.951Z,48.77
2022-10-18T04:42:28.382Z,48.68
2022-10-18T04:45:00.607Z,48.96
2022-10-18T04:47:33.184Z,48.80
2022-10-18T04:50:06.269Z,48.77
2022-10-18T04:52:38.639Z,49.08
2022-10-18T04:55:11.429Z,48.83
2022-10-18T04:57:43.643Z,48.90
2022-10-18T05:00:17.212Z,48.93
2022-10-18T05:02:49.374Z,48.92
2022-10-18T05:05:21.549Z,48.80
2022-10-18T05:07:53.671Z,49.02
2022-10-18T05:10:25.794Z,49.08
2022-10-18T05:12:57.994Z,49.06
2022-10-18T05:15:30.466Z,49.13
2022-10-18T05:18:02.765Z,49.19
2022-10-18T05:20:34.939Z,49.16
2022-10-18T05:23:11.055Z,49.09
2022-10-18T05:25:45.796Z,49.36
2022-10-18T05:28:47.934Z,49.51
2022-10-18T05:31:11.572Z,49.36
2022-10-18T05:33:43.793Z,49.51
2022-10-18T05:36:16.077Z,49.36
2022-10-18T05:38:48.625Z,49.64
2022-10-18T05:41:20.786Z,49.53
2022-10-18T05:43:53.001Z,49.67
2022-10-18T05:46:25.344Z,49.86
2022-10-18T05:48:57.647Z,49.60
2022-10-18T05:51:29.861Z,49.90
2022-10-18T05:54:02.074Z,49.74
2022-10-18T05:56:34.368Z,49.56
2022-10-18T05:59:10.635Z,49.85
2022-10-18T06:01:44.053Z,49.62
2022-10-18T06:04:17.981Z,49.93
2022-10-18T06:06:50.344Z,49.90
2022-10-18T06:09:22.581Z,50.02
2022-10-18T06:11:55.648Z,50.18
2022-10-18T06:14:29.358Z,49.98
2022-10-18T06:17:01.642Z,50.09
2022-10-18T06:19:34.158Z,49.67
2022-10-18T06:22:06.385Z,49.85
2022-10-18T06:24:38.543Z,49.78
2022-10-18T06:27:10.596Z,49.74
2022-10-18T06:29:42.968Z,49.64
2022-10-18T06:32:15.196Z,49.73
2022-10-18T06:34:47.244Z,49.52
2022-10-18T06:37:19.355Z,49.47
2022-10-18T06:39:51.622Z,49.75
2022-10-18T06:42:23.786Z,49.61
2022-10-18T06:44:55.933Z,49.60
2022-10-18T06:47:28.129Z,49.76
2022-10-18T06:50:00.306Z,49.62
2022-10-18T06:52:32.801Z,49.66
2022-10-18T06:55:09.186Z,49.81
2022-10-18T06:57:41.473Z,49.69
2022-10-18T07:00:15.899Z,49.68
2022-10-18T07:02:48.026Z,49.86
2022-10-18T07:05:20.442Z,49.77
2022-10-18T07:07:55.672Z,49.65
2022-10-18T07:10:28.634Z,49.67
2022-10-18T07:13:19.921Z,49.66
2022-10-18T07:16:03.296Z,49.62
2022-10-18T07:18:36.041Z,49.38
2022-10-18T07:21:10.977Z,49.49
2022-10-18T07:23:44.557Z,49.48
2022-10-18T07:26:18.257Z,49.34
2022-10-18T07:28:54.324Z,49.36
2022-10-18T07:31:27.161Z,49.28
2022-10-18T07:33:59.688Z,49.27
2022-10-18T07:36:31.784Z,49.12
2022-10-18T07:39:03.869Z,48.97
2022-10-18T07:41:36.404Z,49.09
2022-10-18T07:44:09.192Z,49.01
2022-10-18T07:46:41.312Z,49.15
2022-10-18T07:49:13.518Z,48.95
2022-10-18T07:51:45.554Z,49.02
2022-10-18T07:54:17.888Z,49.03
2022-10-18T07:56:49.949Z,49.00
2022-10-18T07:59:22.137Z,48.97
2022-10-18T08:01:54.382Z,48.82
2022-10-18T08:04:26.590Z,48.83
2022-10-18T08:06:58.882Z,48.85
2022-10-18T08:09:31.229Z,48.83
2022-10-18T08:12:03.320Z,48.82
2022-10-18T08:14:35.383Z,48.74
2022-10-18T08:17:07.461Z,48.74
2022-10-18T08:19:48.243Z,48.70
2022-10-18T08:22:30.718Z,48.59
2022-10-18T08:25:02.865Z,48.55
2022-10-18T08:27:35.365Z,48.53
2022-10-18T08:30:09.682Z,48.51
2022-10-18T08:32:41.783Z,48.47
2022-10-18T08:35:13.890Z,48.43
2022-10-18T08:37:46.389Z,48.29
2022-10-18T08:40:18.779Z,48.31
2022-10-18T08:43:07.225Z,48.17
2022-10-18T08:45:43.140Z,48.08
2022-10-18T08:48:25.013Z,48.04
2022-10-18T08:50:58.481Z,48.03
2022-10-18T08:53:36.196Z,47.84
2022-10-18T08:56:15.719Z,47.79
2022-10-18T08:58:47.995Z,47.73
2022-10-18T09:01:29.617Z,47.70
2022-10-18T09:04:26.771Z,47.46
2022-10-18T09:07:14.066Z,47.49
2022-10-18T09:09:52.104Z,47.33
2022-10-18T09:12:43.777Z,47.12
2022-10-18T09:15:19.787Z,46.83
2022-10-18T09:18:05.894Z,46.79
2022-10-18T09:20:53.129Z,46.69
2022-10-18T09:23:28.978Z,46.43
2022-10-18T09:26:08.159Z,46.35
2022-10-18T09:28:46.562Z,46.19
2022-10-18T09:31:22.962Z,46.06
2022-10-18T09:33:57.432Z,45.84
2022-10-18T09:36:35.613Z,45.55
2022-10-18T09:39:14.974Z,45.38
2022-10-18T09:41:51.810Z,45.24
2022-10-18T09:44:25.973Z,45.03
2022-10-18T09:47:01.647Z,44.35
2022-10-18T09:49:38.303Z,44.04
2022-10-18T09:52:18.637Z,43.88
2022-10-18T09:54:55.553Z,43.60
2022-10-18T09:57:32.946Z,43.27
2022-10-18T10:00:07.062Z,42.91
2022-10-18T10:02:39.320Z,42.63
2022-10-18T10:05:15.503Z,42.25
2022-10-18T10:07:50.709Z,41.68
2022-10-18T10:10:25.481Z,41.31
2022-10-18T10:13:07.785Z,41.18
2022-10-18T10:15:42.569Z,40.91
2022-10-18T10:18:22.447Z,40.81
2022-10-18T10:20:56.077Z,40.52
2022-10-18T10:23:30.884Z,40.29
2022-10-18T10:26:05.476Z,39.88
2022-10-18T10:28:46.545Z,39.66
2022-10-18T10:31:29.939Z,39.20
2022-10-18T10:34:04.322Z,38.55
2022-10-18T10:36:36.840Z,38.10
2022-10-18T10:39:12.470Z,37.94
2022-10-18T10:41:44.649Z,37.62
2022-10-18T10:44:17.400Z,37.41
2022-10-18T10:46:51.553Z,37.21
2022-10-18T10:49:41.621Z,36.55
2022-10-18T10:52:28.562Z,36.60
2022-10-18T10:55:17.018Z,36.39
2022-10-18T10:57:55.642Z,35.84
2022-10-18T11:00:43.017Z,35.74
2022-10-18T11:03:28.568Z,35.11
2022-10-18T11:06:02.475Z,34.92
2022-10-18T11:08:37.993Z,34.87
2022-10-18T11:11:20.722Z,34.53
2022-10-18T11:14:21.012Z,34.31
2022-10-18T11:16:58.351Z,34.11
2022-10-18T11:19:38.127Z,33.85
2022-10-18T11:22:15.333Z,33.22
2022-10-18T11:24:47.547Z,32.73
2022-10-18T11:27:24.101Z,32.77
2022-10-18T11:30:07.888Z,32.12
2022-10-18T11:32:45.644Z,31.62
2022-10-18T11:35:34.538Z,31.52
2022-10-18T11:38:18.347Z,31.36
2022-10-18T11:41:01.070Z,31.16
2022-10-18T11:44:00.636Z,31.32
2022-10-18T11:46:41.280Z,30.86
2022-10-18T11:49:27.758Z,30.35
2022-10-18T11:52:09.359Z,30.54
2022-10-18T11:55:11.193Z,30.37
2022-10-18T11:57:48.613Z,29.98
2022-10-18T12:00:30.507Z,29.47
2022-10-18T12:03:19.956Z,29.39
2022-10-18T12:05:54.192Z,29.47
2022-10-18T12:08:30.531Z,29.39
2022-10-18T12:11:07.754Z,29.03
2022-10-18T12:13:45.264Z,28.57
2022-10-18T12:16:18.184Z,28.50
2022-10-18T12:18:55.681Z,28.57
2022-10-18T12:21:30.357Z,28.28
2022-10-18T12:24:06.537Z,27.92
2022-10-18T12:26:39.049Z,27.78
2022-10-18T12:29:18.545Z,27.52
2022-10-18T12:31:53.800Z,27.31
2022-10-18T12:34:33.647Z,27.45
2022-10-18T12:37:32.339Z,27.37
2022-10-18T12:40:14.246Z,27.07
2022-10-18T12:42:49.957Z,27.23
2022-10-18T12:45:33.576Z,26.79
2022-10-18T12:48:08.373Z,26.73
2022-10-18T12:50:41.766Z,26.60
2022-10-18T12:53:22.799Z,26.87
2022-10-18T12:55:55.911Z,26.40
2022-10-18T12:58:33.565Z,26.04
2022-10-18T13:01:08.046Z,26.15
2022-10-18T13:03:56.292Z,26.12
2022-10-18T13:06:28.783Z,25.89
2022-10-18T13:09:24.755Z,26.03
2022-10-18T13:12:01.938Z,25.94
2022-10-18T13:15:20.639Z,25.71
2022-10-18T13:17:55.194Z,25.62
2022-10-18T13:20:32.034Z,25.75
2022-10-18T13:23:12.031Z,25.65
2022-10-18T13:25:55.692Z,25.81
2022-10-18T13:28:35.936Z,25.66
2022-10-18T13:31:16.083Z,25.07
2022-10-18T13:33:48.354Z,24.90
2022-10-18T13:36:29.537Z,24.79
2022-10-18T13:39:17.510Z,24.98
2022-10-18T13:42:29.707Z,24.92
2022-10-18T13:45:32.752Z,24.86
2022-10-18T13:48:35.573Z,24.79
2022-10-18T13:51:24.158Z,24.61
2022-10-18T13:54:02.155Z,24.46
2022-10-18T13:56:55.372Z,24.86
2022-10-18T13:59:47.277Z,24.86
2022-10-18T14:02:51.159Z,24.76
2022-10-18T14:05:30.747Z,24.75
2022-10-18T14:08:10.353Z,24.60
2022-10-18T14:11:01.390Z,24.49
2022-10-18T14:13:40.321Z,24.48
2022-10-18T14:16:22.834Z,24.67
2022-10-18T14:18:56.708Z,24.89
2022-10-18T14:21:33.734Z,24.96
2022-10-18T14:24:07.781Z,24.88
2022-10-18T14:29:21.628Z,24.92
2022-10-18T14:31:58.142Z,25.18
2022-10-18T14:34:30.931Z,25.47
2022-10-18T14:37:03.095Z,25.45
2022-10-18T14:39:35.262Z,25.27
2022-10-18T14:42:19.372Z,25.38
2022-10-18T14:44:54.427Z,25.36
2022-10-18T14:47:30.264Z,25.19
2022-10-18T14:50:02.543Z,25.29
2022-10-18T14:52:35.967Z,25.42
2022-10-18T14:55:13.926Z,25.55
2022-10-18T14:57:46.069Z,25.55
2022-10-18T15:00:25.608Z,25.65
2022-10-18T15:02:57.771Z,25.63
2022-10-18T15:05:32.235Z,25.96
2022-10-18T15:08:04.704Z,25.96
2022-10-18T15:10:38.175Z,26.07
2022-10-18T15:13:11.883Z,26.16
2022-10-18T15:15:44.708Z,26.28
2022-10-18T15:18:24.399Z,26.28
2022-10-18T15:21:24.176Z,26.23
2022-10-18T15:23:56.744Z,26.33
2022-10-18T15:26:30.907Z,26.47
2022-10-18T15:29:06.052Z,26.60
2022-10-18T15:31:40.337Z,26.75
2022-10-18T15:34:16.449Z,26.90
2022-10-18T15:36:48.947Z,26.86
2022-10-18T15:39:23.397Z,27.07
2022-10-18T15:41:56.657Z,27.18
2022-10-18T15:44:32.315Z,27.19
2022-10-18T15:47:21.474Z,27.11
2022-10-18T15:49:56.913Z,27.26
2022-10-18T15:52:42.913Z,27.38
2022-10-18T15:55:49.069Z,27.46
2022-10-18T15:58:24.260Z,27.74
2022-10-18T16:00:58.032Z,27.90
2022-10-18T16:03:32.766Z,27.95
2022-10-18T16:06:08.097Z,27.69
2022-10-18T16:08:43.616Z,28.02
2022-10-18T16:11:19.009Z,28.22
2022-10-18T16:13:52.179Z,28.24
2022-10-18T16:16:27.660Z,28.18
2022-10-18T16:19:00.453Z,28.42
2022-10-18T16:21:34.359Z,28.43
2022-10-18T16:24:07.667Z,28.50
2022-10-18T16:26:40.157Z,28.78
2022-10-18T16:29:12.006Z,28.69
2022-10-18T16:31:44.304Z,28.69
2022-10-18T16:34:16.532Z,28.87
2022-10-18T16:36:48.792Z,28.83
2022-10-18T16:39:21.890Z,28.99
2022-10-18T16:41:54.169Z,29.04
2022-10-18T16:44:26.230Z,28.97
2022-10-18T16:46:58.341Z,29.13
2022-10-18T16:49:30.417Z,29.34
2022-10-18T16:52:02.626Z,29.42
2022-10-18T16:54:35.869Z,29.49
2022-10-18T16:57:08.051Z,29.56
2022-10-18T16:59:40.322Z,29.60
2022-10-18T17:02:13.329Z,29.73
2022-10-18T17:04:45.533Z,29.82
2022-10-18T17:07:22.642Z,29.94
2022-10-18T17:09:54.900Z,30.06
2022-10-18T17:12:27.029Z,30.12
2022-10-18T17:14:59.233Z,30.14
2022-10-18T17:17:31.669Z,30.16
2022-10-18T17:20:04.605Z,30.44
2022-10-18T17:22:36.744Z,30.58
2022-10-18T17:25:10.046Z,30.77
2022-10-18T17:27:42.136Z,30.88
2022-10-18T17:30:17.955Z,30.70
2022-10-18T17:32:50.108Z,30.71
2022-10-18T17:35:23.090Z,30.88
2022-10-18T17:37:55.503Z,30.93
2022-10-18T17:40:27.713Z,31.03
2022-10-18T17:43:00.447Z,31.11
2022-10-18T17:45:32.619Z,31.21
2022-10-18T17:48:05.068Z,31.32
2022-10-18T17:50:37.410Z,31.43
2022-10-18T17:53:09.325Z,31.46
2022-10-18T17:55:41.608Z,31.67
2022-10-18T17:58:13.824Z,31.75
2022-10-18T18:00:45.995Z,31.72
2022-10-18T18:03:28.527Z,31.85
2022-10-18T18:06:01.394Z,31.87
2022-10-18T18:08:33.672Z,32.12
2022-10-18T18:11:06.043Z,32.16
2022-10-18T18:13:38.289Z,32.09
2022-10-18T18:16:16.216Z,32.26
2022-10-18T18:18:50.476Z,32.49
2022-10-18T18:21:23.267Z,32.31
2022-10-18T18:23:55.716Z,32.47
2022-10-18T18:26:28.284Z,32.51
2022-10-18T18:28:58.993Z,32.74
2022-10-18T18:31:34.518Z,32.74
2022-10-18T18:34:11.808Z,32.83
2022-10-18T18:36:44.480Z,33.14
2022-10-18T18:39:19.261Z,33.14
2022-10-18T18:41:52.963Z,33.20
2022-10-18T18:44:25.896Z,33.23
2022-10-18T18:46:58.857Z,33.21
2022-10-18T18:49:31.611Z,33.40
2022-10-18T18:52:04.034Z,33.52
2022-10-18T18:54:36.380Z,33.54
2022-10-18T18:57:08.600Z,33.55
2022-10-18T18:59:40.821Z,33.71
2022-10-18T19:02:13.945Z,33.77
2022-10-18T19:04:46.196Z,33.79
2022-10-18T19:07:18.443Z,33.94
2022-10-18T19:09:51.066Z,34.04
2022-10-18T19:12:21.628Z,34.22
2022-10-18T19:14:55.006Z,34.34
2022-10-18T19:17:27.557Z,34.27
2022-10-18T19:20:01.277Z,34.32
2022-10-18T19:22:33.415Z,34.34
2022-10-18T19:25:05.965Z,34.41
2022-10-18T19:27:38.635Z,34.62
2022-10-18T19:30:12.814Z,34.58
2022-10-18T19:32:45.123Z,34.81
2022-10-18T19:35:17.497Z,34.99
2022-10-18T19:37:49.745Z,35.11
2022-10-18T19:40:21.926Z,34.99
2022-10-18T19:42:54.183Z,35.07
2022-10-18T19:45:26.380Z,35.17
2022-10-18T19:47:58.519Z,35.22
2022-10-18T19:50:31.838Z,35.22
2022-10-18T19:53:04.049Z,35.45
2022-10-18T19:55:38.456Z,35.57
2022-10-18T19:58:10.695Z,35.59
2022-10-18T20:00:42.903Z,35.75
2022-10-18T20:03:16.270Z,35.74
2022-10-18T20:05:48.473Z,35.80
2022-10-18T20:08:20.587Z,35.81
2022-10-18T20:10:52.955Z,35.88
2022-10-18T20:13:25.156Z,35.96
2022-10-18T20:15:57.472Z,36.03
2022-10-18T20:18:29.725Z,36.17
2022-10-18T20:21:02.102Z,36.18
2022-10-18T20:23:34.230Z,36.20
2022-10-18T20:26:08.632Z,36.33
2022-10-18T20:28:42.026Z,36.36
2022-10-18T20:31:17.067Z,36.57
2022-10-18T20:33:54.285Z,36.63
2022-10-18T20:36:27.299Z,36.62
2022-10-18T20:38:59.620Z,36.70
2022-10-18T20:41:33.849Z,36.70
2022-10-18T20:44:08.525Z,36.74
2022-10-18T20:46:41.140Z,36.87
2022-10-18T20:49:12.266Z,37.02
2022-10-18T20:51:44.389Z,37.07
2022-10-18T20:54:16.513Z,37.08
2022-10-18T20:56:48.635Z,37.12
2022-10-18T20:59:20.726Z,37.19
2022-10-18T21:01:52.825Z,37.32
2022-10-18T21:04:25.047Z,37.43
2022-10-18T21:06:57.073Z,37.53
2022-10-18T21:09:29.171Z,37.67
2022-10-18T21:12:01.297Z,37.67
2022-10-18T21:14:33.759Z,37.92
2022-10-18T21:17:05.827Z,38.08
2022-10-18T21:19:38.180Z,38.34
2022-10-18T21:22:10.215Z,38.49
2022-10-18T21:24:42.672Z,38.64
2022-10-18T21:27:16.933Z,38.80
2022-10-18T21:29:49.544Z,38.79
2022-10-18T21:32:19.900Z,38.80
2022-10-18T21:34:52.078Z,38.92
2022-10-18T21:37:24.174Z,39.01
2022-10-18T21:39:56.330Z,39.09
2022-10-18T21:42:28.440Z,39.09
2022-10-18T21:45:00.527Z,39.09
2022-10-18T21:47:32.629Z,38.90
2022-10-18T21:50:04.921Z,38.97
2022-10-18T21:52:37.029Z,39.05
2022-10-18T21:55:10.533Z,38.98
2022-10-18T21:57:42.836Z,39.00
2022-10-18T22:00:18.775Z,39.05
2022-10-18T22:02:50.827Z,38.99
2022-10-18T22:05:23.134Z,39.00
2022-10-18T22:07:55.232Z,39.17
2022-10-18T22:10:27.295Z,39.03
2022-10-18T22:12:59.719Z,38.98
2022-10-18T22:15:31.850Z,39.08
2022-10-18T22:18:03.968Z,39.05
2022-10-18T22:20:36.086Z,39.06
2022-10-18T22:23:08.258Z,39.08
2022-10-18T22:25:40.342Z,39.08
2022-10-18T22:28:12.485Z,39.21
2022-10-18T22:30:44.729Z,39.21
2022-10-18T22:33:16.829Z,39.25
2022-10-18T22:35:52.954Z,39.28
2022-10-18T22:38:25.064Z,39.31
2022-10-18T22:40:57.186Z,39.44
2022-10-18T22:43:31.862Z,39.47
2022-10-18T22:46:04.786Z,39.58
2022-10-18T22:48:37.427Z,39.65
2022-10-18T22:51:07.971Z,39.76
2022-10-18T22:53:41.091Z,39.80
2022-10-18T22:56:16.778Z,39.98
2022-10-18T22:58:49.489Z,39.94
2022-10-18T23:01:23.468Z,39.90
2022-10-18T23:03:59.395Z,39.95
2022-10-18T23:06:32.963Z,39.99
2022-10-18T23:09:07.859Z,40.09
2022-10-18T23:11:40.356Z,40.20
2022-10-18T23:14:13.315Z,40.08
2022-10-18T23:16:45.865Z,40.23
2022-10-18T23:19:19.120Z,40.31
2022-10-18T23:21:51.257Z,40.37
2022-10-18T23:24:23.335Z,40.44
2022-10-18T23:26:55.572Z,40.56
2022-10-18T23:29:27.789Z,40.63
2022-10-18T23:31:59.900Z,40.69
2022-10-18T23:34:31.998Z,40.71
2022-10-18T23:37:04.118Z,40.67
2022-10-18T23:39:36.205Z,40.79
2022-10-18T23:42:08.805Z,40.93
2022-10-18T23:44:40.909Z,41.05
2022-10-18T23:47:12.993Z,41.06
2022-10-18T23:49:45.558Z,40.98
2022-10-18T23:52:17.681Z,41.27
2022-10-18T23:54:50.230Z,41.10
2022-10-18T23:57:22.365Z,41.14
2022-10-18T23:59:54.501Z,41.22
